Eiwamaru — JG5742 — position and weather

sailwx.info

Track history (hours):
 
Tides and Currents Weather Stations Pressure Air Temp Water Temp Dewpoint Dewpoint Depression Visibility Wind Speed Wind Dir Waves Ship Positions

Eiwamaru

Last reported at 2016-Jun-23 22:32 UTC. Time now 2016-Jun-25 12:31 UTC.
Position N 34°59' E 140°11'.

Length 80 m; draft 4 m.

Type: Ship (hazmat cat A). MMSI: 431101045.

Date/timePositionNaut miles runAvg speedWind from/ knotsBaromVisibWave heightAir tempDewpointWater temp
2016-Jun-23 22:32N 34°59' E 140°11'3712.3
2016-Jun-23 19:33N 35°25' E 140°43'  
2016-Jun-21 09:07N 36°43' E 141°06'5912.8
2016-Jun-21 04:31N 35°44' E 141°00'1213.0
2016-Jun-21 03:33N 35°33' E 140°53'1413.7
2016-Jun-21 02:33N 35°22' E 140°42'1413.8
2016-Jun-21 01:33N 35°11' E 140°32'1413.7
2016-Jun-21 00:33N 35°02' E 140°19'1413.7
2016-Jun-20 23:33N 34°55' E 140°05'1313.3
2016-Jun-20 22:32N 34°50' E 139°50'31 0.6
2016-Jun-18 20:07N 34°52' E 139°12'2012.5
2016-Jun-18 18:33N 35°02' E 139°32'1212.6
2016-Jun-18 17:33N 35°10' E 139°44'1111.3
2016-Jun-18 16:34N 35°21' E 139°43'10 9.6
2016-Jun-18 15:33N 35°30' E 139°45'0 0.1
2016-Jun-18 14:34N 35°30' E 139°45'0 0.0
2016-Jun-18 13:34N 35°30' E 139°45'0 0.0
2016-Jun-18 12:34N 35°30' E 139°45'0 0.0
2016-Jun-18 11:34N 35°30' E 139°45'0 0.0
2016-Jun-18 10:33N 35°30' E 139°45'0 0.0
2016-Jun-18 09:34N 35°30' E 139°45'3 2.8
2016-Jun-18 08:34N 35°30' E 139°48'3 3.4
2016-Jun-18 07:34N 35°30' E 139°44'5 5.1
2016-Jun-18 06:34N 35°30' E 139°50'0 0.0
2016-Jun-18 05:33N 35°30' E 139°50'0 0.1
2016-Jun-18 04:33N 35°30' E 139°50'0 0.0
2016-Jun-18 03:34N 35°30' E 139°50'0 0.0
2016-Jun-18 02:34N 35°30' E 139°50'0 0.1
2016-Jun-18 01:34N 35°30' E 139°50'0 0.0
2016-Jun-18 00:34N 35°30' E 139°50'3 2.5
2016-Jun-17 23:34N 35°31' E 139°53'1211.7
2016-Jun-17 22:33N 35°36' E 140°06'0 0.0
2016-Jun-17 21:33N 35°36' E 140°06'0 0.0
2016-Jun-17 20:33N 35°36' E 140°06'0 0.0
2016-Jun-17 19:33N 35°36' E 140°06'0 0.0
2016-Jun-17 18:34N 35°36' E 140°06'0 0.0
2016-Jun-17 17:34N 35°36' E 140°06'0 0.0
2016-Jun-17 16:34N 35°36' E 140°06'0 0.0
2016-Jun-17 15:33N 35°36' E 140°06'0 0.0
2016-Jun-17 14:33N 35°36' E 140°06'0 0.0
2016-Jun-17 13:33N 35°36' E 140°06'0 0.0
2016-Jun-17 12:34N 35°36' E 140°06'0 0.0
2016-Jun-17 11:33N 35°36' E 140°06'0 0.0
2016-Jun-17 10:34N 35°36' E 140°06'0 0.0
2016-Jun-17 09:34N 35°36' E 140°06'0 0.0
2016-Jun-17 08:33N 35°36' E 140°06'0 0.0
2016-Jun-17 07:33N 35°36' E 140°06'0 0.0
2016-Jun-17 06:33N 35°36' E 140°06'0 0.0
2016-Jun-17 05:33N 35°36' E 140°06'0 0.0
2016-Jun-17 04:33N 35°36' E 140°06'0 0.0
2016-Jun-17 03:33N 35°36' E 140°06'0 0.0
2016-Jun-17 02:34N 35°36' E 140°06'0 0.0
2016-Jun-17 01:34N 35°36' E 140°06'0 0.0
2016-Jun-17 00:34N 35°36' E 140°06'0 0.0
2016-Jun-16 23:33N 35°36' E 140°06'3 2.7
2016-Jun-16 22:33N 35°35' E 140°03'9 9.5
2016-Jun-16 21:34N 35°28' E 139°54'0 0.1
2016-Jun-16 20:34N 35°28' E 139°55'0 0.0
2016-Jun-16 19:34N 35°28' E 139°55'0 0.0
2016-Jun-16 18:34N 35°28' E 139°55'0 0.0
2016-Jun-16 17:34N 35°28' E 139°55'0 0.0
2016-Jun-16 16:34N 35°28' E 139°55'0 0.0
2016-Jun-16 15:34N 35°28' E 139°55'0 0.0
2016-Jun-16 14:34N 35°28' E 139°55'0 0.1
2016-Jun-16 13:34N 35°28' E 139°54'0 0.1
2016-Jun-16 12:34N 35°28' E 139°54'0 0.0
2016-Jun-16 11:34N 35°28' E 139°54'0 0.0
2016-Jun-16 10:33N 35°28' E 139°54'0 0.0
2016-Jun-16 09:34N 35°28' E 139°54'0 0.0
2016-Jun-16 08:34N 35°28' E 139°54'0 0.0
2016-Jun-16 07:33N 35°28' E 139°54'0 0.0
2016-Jun-16 06:34N 35°28' E 139°54'0 0.1
2016-Jun-16 05:34N 35°28' E 139°55'0 0.0
2016-Jun-16 04:34N 35°28' E 139°55'0 0.0
2016-Jun-16 03:33N 35°28' E 139°55'0 0.0
2016-Jun-16 02:33N 35°28' E 139°55'0 0.0
2016-Jun-16 01:33N 35°28' E 139°55'0 0.1
2016-Jun-16 00:34N 35°28' E 139°55'0 0.1
2016-Jun-15 23:34N 35°28' E 139°55'1211.5
2016-Jun-15 22:33N 35°20' E 139°44'1212.0
2016-Jun-15 21:33N 35°08' E 139°46'6512.7
2016-Jun-15 16:24N 34°34' E 138°38'  
Track history (hours):
 
Tides and Currents Weather Stations Pressure Air Temp Water Temp Dewpoint Dewpoint Depression Visibility Wind Speed Wind Dir Waves Ship Positions

Eiwamaru

Last reported at 2016-Jun-23 22:32 UTC. Time now 2016-Jun-25 12:31 UTC.
Position N 34°59' E 140°11'.

Length 80 m; draft 4 m.

Type: Ship (hazmat cat A). MMSI: 431101045.

Date/timePositionNaut miles runAvg speedWind from/ knotsBaromVisibWave heightAir tempDewpointWater temp
2016-Jun-23 22:32N 34°59' E 140°11'3712.3
2016-Jun-23 19:33N 35°25' E 140°43'  
2016-Jun-21 09:07N 36°43' E 141°06'5912.8
2016-Jun-21 04:31N 35°44' E 141°00'1213.0
2016-Jun-21 03:33N 35°33' E 140°53'1413.7
2016-Jun-21 02:33N 35°22' E 140°42'1413.8
2016-Jun-21 01:33N 35°11' E 140°32'1413.7
2016-Jun-21 00:33N 35°02' E 140°19'1413.7
2016-Jun-20 23:33N 34°55' E 140°05'1313.3
2016-Jun-20 22:32N 34°50' E 139°50'31 0.6
2016-Jun-18 20:07N 34°52' E 139°12'2012.5
2016-Jun-18 18:33N 35°02' E 139°32'1212.6
2016-Jun-18 17:33N 35°10' E 139°44'1111.3
2016-Jun-18 16:34N 35°21' E 139°43'10 9.6
2016-Jun-18 15:33N 35°30' E 139°45'0 0.1
2016-Jun-18 14:34N 35°30' E 139°45'0 0.0
2016-Jun-18 13:34N 35°30' E 139°45'0 0.0
2016-Jun-18 12:34N 35°30' E 139°45'0 0.0
2016-Jun-18 11:34N 35°30' E 139°45'0 0.0
2016-Jun-18 10:33N 35°30' E 139°45'0 0.0
2016-Jun-18 09:34N 35°30' E 139°45'3 2.8
2016-Jun-18 08:34N 35°30' E 139°48'3 3.4
2016-Jun-18 07:34N 35°30' E 139°44'5 5.1
2016-Jun-18 06:34N 35°30' E 139°50'0 0.0
2016-Jun-18 05:33N 35°30' E 139°50'0 0.1
2016-Jun-18 04:33N 35°30' E 139°50'0 0.0
2016-Jun-18 03:34N 35°30' E 139°50'0 0.0
2016-Jun-18 02:34N 35°30' E 139°50'0 0.1
2016-Jun-18 01:34N 35°30' E 139°50'0 0.0
2016-Jun-18 00:34N 35°30' E 139°50'3 2.5
2016-Jun-17 23:34N 35°31' E 139°53'1211.7
2016-Jun-17 22:33N 35°36' E 140°06'0 0.0
2016-Jun-17 21:33N 35°36' E 140°06'0 0.0
2016-Jun-17 20:33N 35°36' E 140°06'0 0.0
2016-Jun-17 19:33N 35°36' E 140°06'0 0.0
2016-Jun-17 18:34N 35°36' E 140°06'0 0.0
2016-Jun-17 17:34N 35°36' E 140°06'0 0.0
2016-Jun-17 16:34N 35°36' E 140°06'0 0.0
2016-Jun-17 15:33N 35°36' E 140°06'0 0.0
2016-Jun-17 14:33N 35°36' E 140°06'0 0.0
2016-Jun-17 13:33N 35°36' E 140°06'0 0.0
2016-Jun-17 12:34N 35°36' E 140°06'0 0.0
2016-Jun-17 11:33N 35°36' E 140°06'0 0.0
2016-Jun-17 10:34N 35°36' E 140°06'0 0.0
2016-Jun-17 09:34N 35°36' E 140°06'0 0.0
2016-Jun-17 08:33N 35°36' E 140°06'0 0.0
2016-Jun-17 07:33N 35°36' E 140°06'0 0.0
2016-Jun-17 06:33N 35°36' E 140°06'0 0.0
2016-Jun-17 05:33N 35°36' E 140°06'0 0.0
2016-Jun-17 04:33N 35°36' E 140°06'0 0.0
2016-Jun-17 03:33N 35°36' E 140°06'0 0.0
2016-Jun-17 02:34N 35°36' E 140°06'0 0.0
2016-Jun-17 01:34N 35°36' E 140°06'0 0.0
2016-Jun-17 00:34N 35°36' E 140°06'0 0.0
2016-Jun-16 23:33N 35°36' E 140°06'3 2.7
2016-Jun-16 22:33N 35°35' E 140°03'9 9.5
2016-Jun-16 21:34N 35°28' E 139°54'0 0.1
2016-Jun-16 20:34N 35°28' E 139°55'0 0.0
2016-Jun-16 19:34N 35°28' E 139°55'0 0.0
2016-Jun-16 18:34N 35°28' E 139°55'0 0.0
2016-Jun-16 17:34N 35°28' E 139°55'0 0.0
2016-Jun-16 16:34N 35°28' E 139°55'0 0.0
2016-Jun-16 15:34N 35°28' E 139°55'0 0.0
2016-Jun-16 14:34N 35°28' E 139°55'0 0.1
2016-Jun-16 13:34N 35°28' E 139°54'0 0.1
2016-Jun-16 12:34N 35°28' E 139°54'0 0.0
2016-Jun-16 11:34N 35°28' E 139°54'0 0.0
2016-Jun-16 10:33N 35°28' E 139°54'0 0.0
2016-Jun-16 09:34N 35°28' E 139°54'0 0.0
2016-Jun-16 08:34N 35°28' E 139°54'0 0.0
2016-Jun-16 07:33N 35°28' E 139°54'0 0.0
2016-Jun-16 06:34N 35°28' E 139°54'0 0.1
2016-Jun-16 05:34N 35°28' E 139°55'0 0.0
2016-Jun-16 04:34N 35°28' E 139°55'0 0.0
2016-Jun-16 03:33N 35°28' E 139°55'0 0.0
2016-Jun-16 02:33N 35°28' E 139°55'0 0.0
2016-Jun-16 01:33N 35°28' E 139°55'0 0.1
2016-Jun-16 00:34N 35°28' E 139°55'0 0.1
2016-Jun-15 23:34N 35°28' E 139°55'1211.5
2016-Jun-15 22:33N 35°20' E 139°44'1212.0
2016-Jun-15 21:33N 35°08' E 139°46'6512.7
2016-Jun-15 16:24N 34°34' E 138°38'  

Dump ship's entire track history